createdAt,value
2023-03-26T00:00:15.437Z,78.42
2023-03-26T00:02:47.234Z,78.51
2023-03-26T00:05:15.140Z,78.62
2023-03-26T00:07:44.114Z,78.29
2023-03-26T00:10:21.619Z,77.74
2023-03-26T00:12:49.919Z,78.17
2023-03-26T00:15:19.852Z,77.88
2023-03-26T00:17:48.104Z,78.07
2023-03-26T00:20:16.814Z,77.45
2023-03-26T00:22:45.437Z,77.23
2023-03-26T00:25:14.608Z,77.13
2023-03-26T00:27:45.493Z,77.02
2023-03-26T00:30:14.281Z,77.10
2023-03-26T00:32:44.132Z,76.79
2023-03-26T00:35:22.318Z,76.87
2023-03-26T00:37:51.748Z,76.85
2023-03-26T00:40:20.980Z,77.18
2023-03-26T00:42:51.634Z,77.25
2023-03-26T00:45:22.198Z,77.27
2023-03-26T00:47:51.796Z,77.60
2023-03-26T00:50:19.928Z,77.84
2023-03-26T00:52:48.552Z,77.93
2023-03-26T00:55:17.621Z,78.50
2023-03-26T00:57:47.894Z,78.46
2023-03-26T01:00:19.051Z,78.72
2023-03-26T01:02:47.864Z,78.91
2023-03-26T01:05:46.174Z,79.02
2023-03-26T01:08:20.820Z,78.94
2023-03-26T01:10:54.611Z,79.53
2023-03-26T01:13:25.512Z,78.68
2023-03-26T01:15:53.966Z,78.40
2023-03-26T01:18:26.368Z,78.32
2023-03-26T01:21:05.461Z,78.66
2023-03-26T01:23:43.832Z,78.50
2023-03-26T01:26:26.594Z,78.43
2023-03-26T01:28:58.606Z,78.17
2023-03-26T01:31:31.358Z,77.69
2023-03-26T01:34:12.280Z,78.42
2023-03-26T01:36:58.856Z,78.32
2023-03-26T01:39:32.697Z,78.32
2023-03-26T01:42:13.758Z,78.11
2023-03-26T01:44:46.807Z,78.65
2023-03-26T01:47:16.482Z,78.95
2023-03-26T01:49:45.360Z,78.70
2023-03-26T01:52:17.142Z,78.05
2023-03-26T01:54:47.229Z,78.77
2023-03-26T01:57:26.507Z,79.03
2023-03-26T02:00:12.971Z,78.89
2023-03-26T02:02:55.636Z,78.66
2023-03-26T02:05:29.484Z,78.85
2023-03-26T02:08:04.168Z,78.91
2023-03-26T02:10:39.937Z,79.26
2023-03-26T02:13:11.577Z,79.36
2023-03-26T02:15:46.318Z,79.30
2023-03-26T02:18:17.928Z,79.68
2023-03-26T02:20:49.870Z,79.29
2023-03-26T02:23:18.989Z,79.72
2023-03-26T02:25:47.747Z,79.60
2023-03-26T02:28:21.917Z,80.43
2023-03-26T02:30:57.556Z,80.45
2023-03-26T02:33:27.597Z,80.27
2023-03-26T02:35:59.424Z,80.39
2023-03-26T02:38:28.049Z,80.37
2023-03-26T02:40:57.223Z,80.44
2023-03-26T02:43:26.613Z,80.68
2023-03-26T02:45:56.551Z,80.31
2023-03-26T02:48:26.240Z,80.48
2023-03-26T02:50:55.250Z,80.04
2023-03-26T02:53:29.941Z,80.50
2023-03-26T02:55:58.202Z,80.21
2023-03-26T02:58:32.824Z,80.04
2023-03-26T03:01:04.137Z,79.86
2023-03-26T03:03:32.937Z,79.95
2023-03-26T03:06:04.654Z,79.89
2023-03-26T03:08:33.843Z,80.32
2023-03-26T03:11:09.136Z,79.78
2023-03-26T03:13:39.416Z,80.08
2023-03-26T03:16:08.508Z,79.73
2023-03-26T03:18:39.909Z,79.96
2023-03-26T03:21:10.913Z,80.05
2023-03-26T03:23:39.072Z,80.08
2023-03-26T03:26:14.249Z,79.74
2023-03-26T03:28:46.462Z,79.73
2023-03-26T03:31:16.009Z,80.39
2023-03-26T03:33:46.294Z,79.97
2023-03-26T03:36:20.387Z,80.20
2023-03-26T03:38:50.702Z,80.39
2023-03-26T03:41:18.894Z,80.39
2023-03-26T03:43:48.924Z,80.53
2023-03-26T03:46:18.247Z,80.63
2023-03-26T03:48:49.735Z,81.19
2023-03-26T03:51:22.685Z,80.95
2023-03-26T03:53:51.006Z,80.28
2023-03-26T03:56:24.196Z,80.62
2023-03-26T03:58:55.795Z,81.30
2023-03-26T04:01:25.331Z,82.01
2023-03-26T04:03:55.620Z,82.55
2023-03-26T04:06:25.191Z,82.54
2023-03-26T04:08:53.744Z,82.80
2023-03-26T04:11:21.601Z,81.90
2023-03-26T04:13:50.904Z,82.52
2023-03-26T04:16:22.165Z,83.29
2023-03-26T04:18:53.257Z,83.46
2023-03-26T04:21:21.250Z,84.59
2023-03-26T04:23:50.687Z,83.91
2023-03-26T04:26:20.403Z,84.20
2023-03-26T04:28:54.483Z,84.86
2023-03-26T04:31:29.450Z,84.94
2023-03-26T04:34:06.745Z,85.17
2023-03-26T04:36:36.853Z,85.45
2023-03-26T04:39:06.969Z,85.64
2023-03-26T04:41:35.997Z,84.70
2023-03-26T04:44:05.654Z,84.88
2023-03-26T04:46:36.749Z,85.67
2023-03-26T04:49:05.799Z,85.21
2023-03-26T04:51:39.697Z,85.93
2023-03-26T04:54:13.594Z,86.23
2023-03-26T04:56:48.651Z,85.66
2023-03-26T04:59:26.678Z,86.08
2023-03-26T05:02:00.219Z,85.88
2023-03-26T05:04:29.660Z,85.68
2023-03-26T05:06:59.960Z,85.76
2023-03-26T05:09:28.951Z,86.08
2023-03-26T05:11:57.401Z,86.06
2023-03-26T05:14:25.500Z,85.88
2023-03-26T05:16:54.654Z,85.94
2023-03-26T05:19:26.082Z,85.33
2023-03-26T05:21:56.999Z,85.33
2023-03-26T05:24:25.918Z,85.47
2023-03-26T05:26:54.529Z,85.79
2023-03-26T05:29:24.611Z,85.26
2023-03-26T05:31:52.839Z,85.55
2023-03-26T05:34:24.591Z,85.16
2023-03-26T05:36:55.554Z,85.19
2023-03-26T05:39:26.564Z,85.13
2023-03-26T05:41:55.537Z,84.74
2023-03-26T05:44:25.076Z,85.48
2023-03-26T05:46:54.649Z,85.95
2023-03-26T05:49:23.078Z,85.05
2023-03-26T05:51:51.982Z,85.17
2023-03-26T05:54:22.848Z,84.82
2023-03-26T05:56:52.813Z,84.95
2023-03-26T05:59:22.065Z,85.37
2023-03-26T06:01:51.206Z,85.04
2023-03-26T06:04:19.465Z,85.11
2023-03-26T06:06:48.245Z,85.42
2023-03-26T06:09:16.934Z,84.41
2023-03-26T06:11:46.984Z,84.86
2023-03-26T06:14:18.136Z,83.95
2023-03-26T06:16:46.241Z,84.17
2023-03-26T06:19:14.322Z,85.30
2023-03-26T06:21:43.453Z,84.45
2023-03-26T06:24:12.555Z,84.29
2023-03-26T06:26:44.253Z,84.72
2023-03-26T06:29:15.226Z,84.25
2023-03-26T06:31:44.191Z,84.58
2023-03-26T06:34:15.437Z,83.74
2023-03-26T06:36:52.654Z,83.75
2023-03-26T06:39:21.605Z,84.79
2023-03-26T06:41:49.794Z,84.38
2023-03-26T06:44:20.663Z,83.45
2023-03-26T06:46:49.297Z,82.84
2023-03-26T06:49:17.656Z,83.30
2023-03-26T06:51:50.481Z,82.45
2023-03-26T06:54:18.943Z,82.25
2023-03-26T06:56:47.935Z,81.99
2023-03-26T06:59:17.782Z,81.66
2023-03-26T07:01:48.206Z,81.13
2023-03-26T07:04:18.150Z,80.80
2023-03-26T07:06:46.374Z,81.07
2023-03-26T07:09:16.521Z,81.71
2023-03-26T07:11:44.679Z,80.23
2023-03-26T07:14:13.525Z,80.95
2023-03-26T07:16:41.754Z,81.27
2023-03-26T07:19:14.311Z,80.53
2023-03-26T07:21:44.160Z,80.89
2023-03-26T07:24:17.055Z,81.19
2023-03-26T07:26:56.901Z,81.13
2023-03-26T07:29:35.054Z,81.59
2023-03-26T07:32:17.221Z,82.36
2023-03-26T07:34:54.911Z,81.73
2023-03-26T07:37:38.027Z,82.79
2023-03-26T07:40:17.911Z,83.06
2023-03-26T07:43:01.819Z,83.52
2023-03-26T07:45:38.101Z,83.85
2023-03-26T07:48:15.567Z,84.60
2023-03-26T07:50:48.907Z,84.69
2023-03-26T07:53:18.203Z,84.96
2023-03-26T07:55:54.620Z,85.43
2023-03-26T07:58:41.783Z,86.60
2023-03-26T08:01:18.171Z,87.69
2023-03-26T08:04:23.845Z,87.78
2023-03-26T08:07:01.214Z,88.65
2023-03-26T08:09:35.151Z,88.50
2023-03-26T08:12:14.886Z,90.19
2023-03-26T08:14:52.996Z,89.05
2023-03-26T08:17:32.408Z,88.48
2023-03-26T08:20:17.299Z,89.49
2023-03-26T08:22:55.224Z,90.22
2023-03-26T08:25:33.400Z,90.40
2023-03-26T08:28:15.298Z,91.04
2023-03-26T08:30:45.658Z,90.76
2023-03-26T08:33:20.614Z,91.01
2023-03-26T08:35:50.411Z,90.39
2023-03-26T08:38:21.499Z,90.61
2023-03-26T08:41:24.942Z,90.39
2023-03-26T08:44:31.417Z,90.59
2023-03-26T08:47:33.460Z,90.42
2023-03-26T08:50:50.589Z,91.01
2023-03-26T08:53:57.668Z,90.72
2023-03-26T08:56:43.887Z,90.67
2023-03-26T09:00:08.621Z,91.47
2023-03-26T09:03:08.874Z,91.71
2023-03-26T09:06:20.715Z,92.16
2023-03-26T09:09:30.676Z,91.93
2023-03-26T09:12:40.742Z,92.13
2023-03-26T09:15:51.704Z,91.85
2023-03-26T09:19:05.115Z,91.77
2023-03-26T09:22:13.683Z,91.34
2023-03-26T09:25:20.362Z,90.20
2023-03-26T09:28:20.820Z,90.69
2023-03-26T09:31:21.939Z,90.81
2023-03-26T09:33:59.457Z,91.14
2023-03-26T09:36:55.468Z,90.94
2023-03-26T09:39:36.087Z,89.97
2023-03-26T09:42:14.384Z,89.80
2023-03-26T09:45:06.451Z,89.33
2023-03-26T09:48:10.120Z,87.68
2023-03-26T09:51:04.607Z,87.42
2023-03-26T09:54:13.090Z,87.80
2023-03-26T09:56:52.379Z,87.79
2023-03-26T09:59:54.772Z,86.94
2023-03-26T10:02:50.276Z,87.54
2023-03-26T10:05:34.928Z,87.89
2023-03-26T10:08:32.228Z,87.50
2023-03-26T10:11:13.045Z,88.40
2023-03-26T10:13:56.396Z,86.93
2023-03-26T10:16:34.916Z,87.42
2023-03-26T10:19:26.105Z,86.80
2023-03-26T10:22:04.747Z,87.04
2023-03-26T10:24:45.876Z,88.25
2023-03-26T10:27:29.786Z,86.62
2023-03-26T10:30:35.890Z,87.78
2023-03-26T10:33:14.824Z,86.04
2023-03-26T10:36:06.222Z,85.34
2023-03-26T10:38:48.663Z,84.72
2023-03-26T10:41:23.367Z,83.07
2023-03-26T10:44:27.136Z,80.55
2023-03-26T10:47:22.920Z,82.14
2023-03-26T10:50:22.757Z,80.72
2023-03-26T10:52:59.709Z,80.45
2023-03-26T10:55:33.332Z,81.04
2023-03-26T10:58:06.462Z,81.06
2023-03-26T11:00:40.636Z,81.21
2023-03-26T11:03:34.436Z,81.13
2023-03-26T11:06:17.617Z,81.58
2023-03-26T11:08:56.927Z,83.13
2023-03-26T11:11:36.184Z,81.23
2023-03-26T11:14:24.408Z,79.22
2023-03-26T11:17:39.612Z,78.25
2023-03-26T11:20:29.526Z,76.66
2023-03-26T11:23:19.032Z,75.10
2023-03-26T11:26:05.340Z,77.73
2023-03-26T11:29:03.567Z,78.63
2023-03-26T11:31:50.680Z,79.91
2023-03-26T11:34:24.435Z,82.02
2023-03-26T11:37:04.055Z,83.81
2023-03-26T11:39:45.711Z,84.38
2023-03-26T11:42:24.138Z,85.16
2023-03-26T11:44:58.628Z,83.57
2023-03-26T11:47:34.326Z,84.90
2023-03-26T11:50:25.048Z,84.53
2023-03-26T11:52:54.983Z,83.02
2023-03-26T11:55:34.972Z,85.41
2023-03-26T11:58:13.664Z,81.41
2023-03-26T12:00:50.912Z,81.55
2023-03-26T12:03:23.076Z,80.16
2023-03-26T12:06:04.448Z,79.62
2023-03-26T12:08:39.651Z,80.62
2023-03-26T12:11:11.645Z,76.75
2023-03-26T12:13:46.012Z,77.42
2023-03-26T12:16:18.409Z,79.82
2023-03-26T12:19:06.250Z,79.23
2023-03-26T12:21:53.587Z,81.03
2023-03-26T12:24:33.284Z,80.94
2023-03-26T12:27:06.160Z,79.33
2023-03-26T12:29:38.520Z,78.30
2023-03-26T12:32:14.485Z,77.56
2023-03-26T12:34:43.102Z,74.68
2023-03-26T12:37:38.042Z,77.32
2023-03-26T12:40:27.235Z,78.05
2023-03-26T12:44:53.234Z,79.78
2023-03-26T12:47:54.123Z,79.35
2023-03-26T12:48:53.802Z,77.62
2023-03-26T12:51:42.104Z,75.68
2023-03-26T12:54:39.188Z,76.28
2023-03-26T12:57:22.899Z,76.86
2023-03-26T13:00:14.816Z,75.79
2023-03-26T13:03:01.560Z,77.02
2023-03-26T13:05:41.280Z,77.32
2023-03-26T13:08:33.043Z,75.97
2023-03-26T13:11:12.736Z,75.52
2023-03-26T13:14:00.856Z,73.05
2023-03-26T13:16:38.317Z,72.43
2023-03-26T13:19:14.514Z,73.57
2023-03-26T13:21:56.664Z,75.15
2023-03-26T13:24:39.239Z,77.72
2023-03-26T13:27:23.493Z,77.27
2023-03-26T13:29:57.773Z,78.10
2023-03-26T13:32:41.445Z,73.98
2023-03-26T13:35:26.017Z,76.10
2023-03-26T13:38:01.096Z,78.63
2023-03-26T13:40:43.225Z,74.29
2023-03-26T13:43:31.047Z,74.99
2023-03-26T13:46:08.980Z,77.89
2023-03-26T13:48:48.035Z,76.20
2023-03-26T13:51:20.979Z,76.25
2023-03-26T13:54:01.692Z,75.04
2023-03-26T13:56:36.846Z,78.73
2023-03-26T13:59:15.242Z,78.94
2023-03-26T14:01:53.983Z,76.95
2023-03-26T14:04:27.055Z,78.29
2023-03-26T14:07:04.209Z,80.03
2023-03-26T14:09:38.572Z,79.77
2023-03-26T14:12:40.657Z,79.49
2023-03-26T14:15:18.628Z,76.96
2023-03-26T14:17:52.031Z,75.40
2023-03-26T14:20:56.483Z,76.49
2023-03-26T14:23:46.130Z,73.58
2023-03-26T14:26:27.511Z,71.14
2023-03-26T14:29:26.177Z,69.54
2023-03-26T14:32:04.656Z,63.28
2023-03-26T14:34:46.805Z,63.89
2023-03-26T14:38:09.195Z,66.01
2023-03-26T14:41:03.739Z,68.08
2023-03-26T14:44:04.125Z,65.48
2023-03-26T14:46:47.370Z,63.83
2023-03-26T14:49:40.709Z,60.96
2023-03-26T14:52:19.649Z,53.93
2023-03-26T14:54:53.583Z,53.47
2023-03-26T14:57:47.882Z,53.02
2023-03-26T15:00:38.301Z,47.94
2023-03-26T15:03:53.887Z,51.13
2023-03-26T15:06:53.884Z,54.79
2023-03-26T15:09:57.960Z,56.32
2023-03-26T15:12:42.536Z,55.69
2023-03-26T15:15:53.885Z,57.06
2023-03-26T15:19:14.600Z,58.98
2023-03-26T15:22:20.412Z,59.59
2023-03-26T15:25:31.816Z,59.51
2023-03-26T15:31:51.783Z,55.71
2023-03-26T15:34:50.751Z,54.59
2023-03-26T15:37:44.120Z,53.69
2023-03-26T15:40:43.025Z,54.98
2023-03-26T15:43:16.706Z,54.61
2023-03-26T15:45:48.463Z,56.06
2023-03-26T15:48:43.071Z,56.29
2023-03-26T15:51:47.807Z,56.25
2023-03-26T15:54:24.286Z,57.76
2023-03-26T15:57:18.723Z,58.68
2023-03-26T16:00:15.096Z,64.56
2023-03-26T16:03:09.239Z,72.62
2023-03-26T16:06:00.265Z,82.01
2023-03-26T16:08:39.154Z,85.16
2023-03-26T16:11:12.630Z,85.65
2023-03-26T17:40:50.365Z,86.63
2023-03-26T17:43:52.889Z,87.19
2023-03-26T17:55:52.131Z,85.35
2023-03-26T17:58:33.944Z,86.57
2023-03-26T18:01:46.121Z,86.80
2023-03-26T18:08:32.652Z,86.02
2023-03-26T18:20:33.221Z,87.39
2023-03-26T18:23:27.591Z,88.25
2023-03-26T18:26:03.089Z,90.41
2023-03-26T18:28:41.993Z,89.69
2023-03-26T18:31:23.401Z,91.20
2023-03-26T18:34:05.086Z,91.28
2023-03-26T18:43:44.460Z,92.36
2023-03-26T18:46:24.116Z,91.69
2023-03-26T18:48:57.897Z,90.96
2023-03-26T18:51:46.370Z,91.22
2023-03-26T18:57:23.955Z,91.51
2023-03-26T19:06:11.463Z,90.84
2023-03-26T19:08:44.240Z,90.24
2023-03-26T19:11:23.789Z,90.66
2023-03-26T19:14:07.121Z,88.96
2023-03-26T19:16:44.646Z,89.82
2023-03-26T19:19:20.829Z,90.36
2023-03-26T19:24:37.499Z,91.21
2023-03-26T19:27:10.101Z,90.79
2023-03-26T19:32:34.606Z,88.97
2023-03-26T19:35:16.770Z,88.24
2023-03-26T19:37:57.571Z,88.15
2023-03-26T19:44:16.181Z,86.95
2023-03-26T19:53:37.121Z,89.43
2023-03-26T20:15:22.345Z,89.01
2023-03-26T20:22:09.598Z,89.10
2023-03-26T20:41:54.709Z,90.77
2023-03-26T20:48:32.117Z,88.85
2023-03-26T20:54:37.802Z,88.62
2023-03-26T20:57:16.902Z,89.04
2023-03-26T21:02:32.951Z,89.83
2023-03-26T21:05:03.027Z,89.57
2023-03-26T21:07:35.636Z,88.66
2023-03-26T21:10:09.994Z,89.61
2023-03-26T21:12:46.003Z,89.58
2023-03-26T21:15:22.808Z,90.08
2023-03-26T21:17:55.193Z,89.82
2023-03-26T21:20:30.247Z,87.86
2023-03-26T21:23:10.964Z,89.10
2023-03-26T21:25:55.354Z,88.37
2023-03-26T21:31:26.041Z,89.46
2023-03-26T21:33:57.496Z,90.19
2023-03-26T21:36:30.593Z,89.96
2023-03-26T21:39:42.406Z,90.34
2023-03-26T21:42:18.204Z,90.28
2023-03-26T21:45:10.192Z,91.05
2023-03-26T21:48:02.945Z,90.83
2023-03-26T21:50:38.901Z,90.77
2023-03-26T22:03:01.062Z,88.98
2023-03-26T22:05:52.020Z,89.78
2023-03-26T22:08:44.582Z,89.47
2023-03-26T22:11:18.052Z,89.34
2023-03-26T22:13:47.088Z,89.01
